sensor_id;sensor_type;location;lat;lon;timestamp;temperature;humidity
19728;DHT22;10015;52.530;13.390;2023-02-28T00:00:36;4.20;99.90
19728;DHT22;10015;52.530;13.390;2023-02-28T00:03:03;4.10;99.90
19728;DHT22;10015;52.530;13.390;2023-02-28T00:05:29;4.10;99.90
19728;DHT22;10015;52.530;13.390;2023-02-28T00:07:55;4.20;99.90
19728;DHT22;10015;52.530;13.390;2023-02-28T00:10:29;4.20;99.90
19728;DHT22;10015;52.530;13.390;2023-02-28T00:12:59;4.20;99.90
19728;DHT22;10015;52.530;13.390;2023-02-28T00:15:25;4.20;99.90
19728;DHT22;10015;52.530;13.390;2023-02-28T00:17:51;4.20;99.90
19728;DHT22;10015;52.530;13.390;2023-02-28T00:20:18;4.10;99.90
19728;DHT22;10015;52.530;13.390;2023-02-28T00:22:48;4.10;99.90
19728;DHT22;10015;52.530;13.390;2023-02-28T00:25:18;4.00;99.90
19728;DHT22;10015;52.530;13.390;2023-02-28T00:27:44;4.10;99.90
19728;DHT22;10015;52.530;13.390;2023-02-28T00:30:13;4.00;99.90
19728;DHT22;10015;52.530;13.390;2023-02-28T00:32:39;4.00;99.90
19728;DHT22;10015;52.530;13.390;2023-02-28T00:35:06;4.00;99.90
19728;DHT22;10015;52.530;13.390;2023-02-28T00:37:33;4.10;99.90
19728;DHT22;10015;52.530;13.390;2023-02-28T00:39:59;4.10;99.90
19728;DHT22;10015;52.530;13.390;2023-02-28T00:42:26;4.00;99.90
19728;DHT22;10015;52.530;13.390;2023-02-28T00:44:52;4.00;99.90
19728;DHT22;10015;52.530;13.390;2023-02-28T00:47:18;3.90;99.90
19728;DHT22;10015;52.530;13.390;2023-02-28T00:49:44;4.00;99.90
19728;DHT22;10015;52.530;13.390;2023-02-28T00:52:10;4.00;99.90
19728;DHT22;10015;52.530;13.390;2023-02-28T00:54:36;4.10;99.90
19728;DHT22;10015;52.530;13.390;2023-02-28T00:57:02;4.10;99.90
19728;DHT22;10015;52.530;13.390;2023-02-28T00:59:28;4.10;99.90
19728;DHT22;10015;52.530;13.390;2023-02-28T01:01:53;4.10;99.90
19728;DHT22;10015;52.530;13.390;2023-02-28T01:04:21;4.10;99.90
19728;DHT22;10015;52.530;13.390;2023-02-28T01:06:47;4.10;99.90
19728;DHT22;10015;52.530;13.390;2023-02-28T01:09:13;4.10;99.90
19728;DHT22;10015;52.530;13.390;2023-02-28T01:11:41;3.90;99.90
19728;DHT22;10015;52.530;13.390;2023-02-28T01:14:14;3.90;99.90
19728;DHT22;10015;52.530;13.390;2023-02-28T01:16:40;3.80;99.90
19728;DHT22;10015;52.530;13.390;2023-02-28T01:19:06;3.80;99.90
19728;DHT22;10015;52.530;13.390;2023-02-28T01:21:32;3.80;99.90
19728;DHT22;10015;52.530;13.390;2023-02-28T01:24:00;3.70;99.90
19728;DHT22;10015;52.530;13.390;2023-02-28T01:26:26;3.80;99.90
19728;DHT22;10015;52.530;13.390;2023-02-28T01:28:53;3.80;99.90
19728;DHT22;10015;52.530;13.390;2023-02-28T01:31:19;3.80;99.90
19728;DHT22;10015;52.530;13.390;2023-02-28T01:33:46;3.80;99.90
19728;DHT22;10015;52.530;13.390;2023-02-28T01:36:21;3.80;99.90
19728;DHT22;10015;52.530;13.390;2023-02-28T01:38:48;3.90;99.90
19728;DHT22;10015;52.530;13.390;2023-02-28T01:41:26;3.90;99.90
19728;DHT22;10015;52.530;13.390;2023-02-28T01:47:00;3.90;99.90
19728;DHT22;10015;52.530;13.390;2023-02-28T01:49:26;3.90;99.90
19728;DHT22;10015;52.530;13.390;2023-02-28T01:51:55;3.90;99.90
19728;DHT22;10015;52.530;13.390;2023-02-28T01:54:32;3.90;99.90
19728;DHT22;10015;52.530;13.390;2023-02-28T01:57:06;3.90;99.90
19728;DHT22;10015;52.530;13.390;2023-02-28T01:59:48;3.70;99.90
19728;DHT22;10015;52.530;13.390;2023-02-28T02:02:17;3.70;99.90
19728;DHT22;10015;52.530;13.390;2023-02-28T02:05:05;3.80;99.90
19728;DHT22;10015;52.530;13.390;2023-02-28T02:07:39;3.70;99.90
19728;DHT22;10015;52.530;13.390;2023-02-28T02:15:34;3.70;99.90
19728;DHT22;10015;52.530;13.390;2023-02-28T02:21:04;3.20;99.90
19728;DHT22;10015;52.530;13.390;2023-02-28T02:32:52;3.50;99.90
19728;DHT22;10015;52.530;13.390;2023-02-28T02:35:28;3.60;99.90
19728;DHT22;10015;52.530;13.390;2023-02-28T02:40:41;3.70;99.90
19728;DHT22;10015;52.530;13.390;2023-02-28T02:43:16;3.70;99.90
19728;DHT22;10015;52.530;13.390;2023-02-28T02:45:49;3.50;99.90
19728;DHT22;10015;52.530;13.390;2023-02-28T02:48:20;3.40;99.90
19728;DHT22;10015;52.530;13.390;2023-02-28T02:50:54;3.40;99.90
19728;DHT22;10015;52.530;13.390;2023-02-28T02:53:26;3.50;99.90
19728;DHT22;10015;52.530;13.390;2023-02-28T02:55:53;3.50;99.90
19728;DHT22;10015;52.530;13.390;2023-02-28T02:58:26;3.50;99.90
19728;DHT22;10015;52.530;13.390;2023-02-28T03:00:56;3.50;99.90
19728;DHT22;10015;52.530;13.390;2023-02-28T03:03:23;3.50;99.90
19728;DHT22;10015;52.530;13.390;2023-02-28T03:06:04;3.40;99.90
19728;DHT22;10015;52.530;13.390;2023-02-28T03:08:36;3.40;99.90
19728;DHT22;10015;52.530;13.390;2023-02-28T03:11:11;3.50;99.90
19728;DHT22;10015;52.530;13.390;2023-02-28T03:14:07;3.40;99.90
19728;DHT22;10015;52.530;13.390;2023-02-28T03:16:44;3.40;99.90
19728;DHT22;10015;52.530;13.390;2023-02-28T03:24:54;3.30;99.90
19728;DHT22;10015;52.530;13.390;2023-02-28T03:27:29;3.10;99.90
19728;DHT22;10015;52.530;13.390;2023-02-28T03:30:04;3.10;99.90
19728;DHT22;10015;52.530;13.390;2023-02-28T03:32:36;3.00;99.90
19728;DHT22;10015;52.530;13.390;2023-02-28T03:35:26;3.00;99.90
19728;DHT22;10015;52.530;13.390;2023-02-28T03:38:03;3.00;99.90
19728;DHT22;10015;52.530;13.390;2023-02-28T03:40:32;3.10;99.90
19728;DHT22;10015;52.530;13.390;2023-02-28T03:43:07;3.20;99.90
19728;DHT22;10015;52.530;13.390;2023-02-28T03:45:36;3.20;99.90
19728;DHT22;10015;52.530;13.390;2023-02-28T03:48:18;3.20;99.90
19728;DHT22;10015;52.530;13.390;2023-02-28T03:50:48;3.20;99.90
19728;DHT22;10015;52.530;13.390;2023-02-28T03:53:34;3.20;99.90
19728;DHT22;10015;52.530;13.390;2023-02-28T03:56:18;3.10;99.90
19728;DHT22;10015;52.530;13.390;2023-02-28T03:58:58;3.10;99.90
19728;DHT22;10015;52.530;13.390;2023-02-28T04:01:35;3.20;99.90
19728;DHT22;10015;52.530;13.390;2023-02-28T04:04:02;3.20;99.90
19728;DHT22;10015;52.530;13.390;2023-02-28T04:06:31;3.20;99.90
19728;DHT22;10015;52.530;13.390;2023-02-28T04:08:58;3.20;99.90
19728;DHT22;10015;52.530;13.390;2023-02-28T04:11:50;3.20;99.90
19728;DHT22;10015;52.530;13.390;2023-02-28T04:14:21;3.10;99.90
19728;DHT22;10015;52.530;13.390;2023-02-28T04:16:47;3.10;99.90
19728;DHT22;10015;52.530;13.390;2023-02-28T04:19:14;3.10;99.90
19728;DHT22;10015;52.530;13.390;2023-02-28T04:21:42;3.10;99.90
19728;DHT22;10015;52.530;13.390;2023-02-28T04:24:11;3.10;99.90
19728;DHT22;10015;52.530;13.390;2023-02-28T04:26:41;3.10;99.90
19728;DHT22;10015;52.530;13.390;2023-02-28T04:29:10;3.10;99.90
19728;DHT22;10015;52.530;13.390;2023-02-28T04:31:36;3.10;99.90
19728;DHT22;10015;52.530;13.390;2023-02-28T04:34:02;3.10;99.90
19728;DHT22;10015;52.530;13.390;2023-02-28T04:36:29;3.10;99.90
19728;DHT22;10015;52.530;13.390;2023-02-28T04:38:55;3.10;99.90
19728;DHT22;10015;52.530;13.390;2023-02-28T04:41:22;3.10;99.90
19728;DHT22;10015;52.530;13.390;2023-02-28T04:43:48;3.10;99.90
19728;DHT22;10015;52.530;13.390;2023-02-28T04:46:14;3.10;99.90
19728;DHT22;10015;52.530;13.390;2023-02-28T04:48:40;3.10;99.90
19728;DHT22;10015;52.530;13.390;2023-02-28T04:51:12;3.10;99.90
19728;DHT22;10015;52.530;13.390;2023-02-28T04:53:41;3.00;99.90
19728;DHT22;10015;52.530;13.390;2023-02-28T04:56:10;3.00;99.90
19728;DHT22;10015;52.530;13.390;2023-02-28T04:58:36;3.00;99.90
19728;DHT22;10015;52.530;13.390;2023-02-28T05:01:04;3.00;99.90
19728;DHT22;10015;52.530;13.390;2023-02-28T05:03:30;2.90;99.90
19728;DHT22;10015;52.530;13.390;2023-02-28T05:05:56;2.90;99.90
19728;DHT22;10015;52.530;13.390;2023-02-28T05:08:22;2.90;99.90
19728;DHT22;10015;52.530;13.390;2023-02-28T05:10:48;2.90;99.90
19728;DHT22;10015;52.530;13.390;2023-02-28T05:13:14;2.90;99.90
19728;DHT22;10015;52.530;13.390;2023-02-28T05:15:40;2.90;99.90
19728;DHT22;10015;52.530;13.390;2023-02-28T05:18:06;2.80;99.90
19728;DHT22;10015;52.530;13.390;2023-02-28T05:20:33;2.80;99.90
19728;DHT22;10015;52.530;13.390;2023-02-28T05:23:00;2.90;99.90
19728;DHT22;10015;52.530;13.390;2023-02-28T05:25:26;2.90;99.90
19728;DHT22;10015;52.530;13.390;2023-02-28T05:27:52;2.80;99.90
19728;DHT22;10015;52.530;13.390;2023-02-28T05:30:18;2.80;99.90
19728;DHT22;10015;52.530;13.390;2023-02-28T05:32:49;2.80;99.90
19728;DHT22;10015;52.530;13.390;2023-02-28T05:35:15;2.80;99.90
19728;DHT22;10015;52.530;13.390;2023-02-28T05:37:41;2.80;99.90
19728;DHT22;10015;52.530;13.390;2023-02-28T05:40:07;2.80;99.90
19728;DHT22;10015;52.530;13.390;2023-02-28T05:42:36;2.80;99.90
19728;DHT22;10015;52.530;13.390;2023-02-28T05:45:03;2.80;99.90
19728;DHT22;10015;52.530;13.390;2023-02-28T05:47:30;2.80;99.90
19728;DHT22;10015;52.530;13.390;2023-02-28T05:49:56;2.80;99.90
19728;DHT22;10015;52.530;13.390;2023-02-28T05:52:22;2.80;99.90
19728;DHT22;10015;52.530;13.390;2023-02-28T05:54:48;2.80;99.90
19728;DHT22;10015;52.530;13.390;2023-02-28T05:57:14;2.80;99.90
19728;DHT22;10015;52.530;13.390;2023-02-28T05:59:40;2.80;99.90
19728;DHT22;10015;52.530;13.390;2023-02-28T06:02:10;2.80;99.90
19728;DHT22;10015;52.530;13.390;2023-02-28T06:04:37;2.80;99.90
19728;DHT22;10015;52.530;13.390;2023-02-28T06:07:03;2.80;99.90
19728;DHT22;10015;52.530;13.390;2023-02-28T06:09:29;2.80;99.90
19728;DHT22;10015;52.530;13.390;2023-02-28T06:11:58;2.80;99.90
19728;DHT22;10015;52.530;13.390;2023-02-28T06:14:24;2.80;99.90
19728;DHT22;10015;52.530;13.390;2023-02-28T06:16:50;2.80;99.90
19728;DHT22;10015;52.530;13.390;2023-02-28T06:19:16;2.80;99.90
19728;DHT22;10015;52.530;13.390;2023-02-28T06:21:43;2.80;99.90
19728;DHT22;10015;52.530;13.390;2023-02-28T06:24:12;2.80;99.90
19728;DHT22;10015;52.530;13.390;2023-02-28T06:26:38;2.80;99.90
19728;DHT22;10015;52.530;13.390;2023-02-28T06:29:04;2.80;99.90
19728;DHT22;10015;52.530;13.390;2023-02-28T06:31:30;2.80;99.90
19728;DHT22;10015;52.530;13.390;2023-02-28T06:33:56;2.80;99.90
19728;DHT22;10015;52.530;13.390;2023-02-28T06:36:22;2.90;99.90
19728;DHT22;10015;52.530;13.390;2023-02-28T06:38:48;2.90;99.90
19728;DHT22;10015;52.530;13.390;2023-02-28T06:41:22;2.90;99.90
19728;DHT22;10015;52.530;13.390;2023-02-28T06:43:48;2.90;99.90
19728;DHT22;10015;52.530;13.390;2023-02-28T06:46:14;2.90;99.90
19728;DHT22;10015;52.530;13.390;2023-02-28T06:48:40;3.00;99.90
19728;DHT22;10015;52.530;13.390;2023-02-28T06:51:09;3.00;99.90
19728;DHT22;10015;52.530;13.390;2023-02-28T06:53:36;3.10;99.90
19728;DHT22;10015;52.530;13.390;2023-02-28T06:56:07;3.10;99.90
19728;DHT22;10015;52.530;13.390;2023-02-28T06:58:33;3.20;99.90
19728;DHT22;10015;52.530;13.390;2023-02-28T07:01:00;3.20;99.90
19728;DHT22;10015;52.530;13.390;2023-02-28T07:03:28;3.30;99.90
19728;DHT22;10015;52.530;13.390;2023-02-28T07:05:54;3.30;99.90
19728;DHT22;10015;52.530;13.390;2023-02-28T07:08:23;3.30;99.90
19728;DHT22;10015;52.530;13.390;2023-02-28T07:10:55;3.40;99.90
19728;DHT22;10015;52.530;13.390;2023-02-28T07:13:22;3.40;99.90
19728;DHT22;10015;52.530;13.390;2023-02-28T07:18:20;3.50;99.90
19728;DHT22;10015;52.530;13.390;2023-02-28T07:20:46;3.60;99.90
19728;DHT22;10015;52.530;13.390;2023-02-28T07:23:12;3.60;99.90
19728;DHT22;10015;52.530;13.390;2023-02-28T07:25:38;3.70;99.90
19728;DHT22;10015;52.530;13.390;2023-02-28T07:28:05;3.70;99.90
19728;DHT22;10015;52.530;13.390;2023-02-28T07:30:31;3.80;99.90
19728;DHT22;10015;52.530;13.390;2023-02-28T07:32:57;3.90;99.90
19728;DHT22;10015;52.530;13.390;2023-02-28T07:35:23;3.90;99.90
19728;DHT22;10015;52.530;13.390;2023-02-28T07:37:49;4.00;99.90
19728;DHT22;10015;52.530;13.390;2023-02-28T07:40:15;4.10;99.90
19728;DHT22;10015;52.530;13.390;2023-02-28T07:42:44;4.10;99.90
19728;DHT22;10015;52.530;13.390;2023-02-28T07:45:11;4.20;99.90
19728;DHT22;10015;52.530;13.390;2023-02-28T07:47:38;4.30;99.90
19728;DHT22;10015;52.530;13.390;2023-02-28T07:50:06;4.30;99.90
19728;DHT22;10015;52.530;13.390;2023-02-28T07:52:32;4.40;99.90
19728;DHT22;10015;52.530;13.390;2023-02-28T07:54:58;4.60;99.90
19728;DHT22;10015;52.530;13.390;2023-02-28T07:57:24;4.90;99.90
19728;DHT22;10015;52.530;13.390;2023-02-28T07:59:51;5.10;99.90
19728;DHT22;10015;52.530;13.390;2023-02-28T08:02:19;5.30;99.90
19728;DHT22;10015;52.530;13.390;2023-02-28T08:04:45;5.70;99.90
19728;DHT22;10015;52.530;13.390;2023-02-28T08:07:14;6.10;99.90
19728;DHT22;10015;52.530;13.390;2023-02-28T08:09:41;6.40;99.90
19728;DHT22;10015;52.530;13.390;2023-02-28T08:12:08;6.70;99.90
19728;DHT22;10015;52.530;13.390;2023-02-28T08:14:35;7.00;99.90
19728;DHT22;10015;52.530;13.390;2023-02-28T08:17:02;7.30;99.90
19728;DHT22;10015;52.530;13.390;2023-02-28T08:19:29;7.70;99.90
19728;DHT22;10015;52.530;13.390;2023-02-28T08:21:56;8.00;99.90
19728;DHT22;10015;52.530;13.390;2023-02-28T08:24:23;8.20;99.90
19728;DHT22;10015;52.530;13.390;2023-02-28T08:26:50;8.60;99.90
19728;DHT22;10015;52.530;13.390;2023-02-28T08:29:16;8.90;99.90
19728;DHT22;10015;52.530;13.390;2023-02-28T08:31:43;9.20;99.90
19728;DHT22;10015;52.530;13.390;2023-02-28T08:34:12;9.40;99.90
19728;DHT22;10015;52.530;13.390;2023-02-28T08:36:39;9.70;99.90
19728;DHT22;10015;52.530;13.390;2023-02-28T08:39:06;9.90;99.70
19728;DHT22;10015;52.530;13.390;2023-02-28T08:41:33;9.90;99.90
19728;DHT22;10015;52.530;13.390;2023-02-28T08:43:59;10.10;98.60
19728;DHT22;10015;52.530;13.390;2023-02-28T08:46:26;10.00;97.00
19728;DHT22;10015;52.530;13.390;2023-02-28T08:48:53;10.20;96.30
19728;DHT22;10015;52.530;13.390;2023-02-28T08:51:20;10.40;93.40
19728;DHT22;10015;52.530;13.390;2023-02-28T08:53:58;10.50;93.80
19728;DHT22;10015;52.530;13.390;2023-02-28T08:56:26;10.80;92.90
19728;DHT22;10015;52.530;13.390;2023-02-28T08:58:55;10.70;92.20
19728;DHT22;10015;52.530;13.390;2023-02-28T09:01:27;10.50;91.80
19728;DHT22;10015;52.530;13.390;2023-02-28T09:03:54;10.60;92.70
19728;DHT22;10015;52.530;13.390;2023-02-28T09:06:22;10.80;91.60
19728;DHT22;10015;52.530;13.390;2023-02-28T09:08:48;11.00;91.10
19728;DHT22;10015;52.530;13.390;2023-02-28T09:11:15;11.30;91.00
19728;DHT22;10015;52.530;13.390;2023-02-28T09:13:42;11.40;90.60
19728;DHT22;10015;52.530;13.390;2023-02-28T09:16:12;11.40;89.20
19728;DHT22;10015;52.530;13.390;2023-02-28T09:18:39;11.40;90.00
19728;DHT22;10015;52.530;13.390;2023-02-28T09:21:11;11.40;90.80
19728;DHT22;10015;52.530;13.390;2023-02-28T09:23:41;11.80;91.00
19728;DHT22;10015;52.530;13.390;2023-02-28T09:26:07;12.10;89.60
19728;DHT22;10015;52.530;13.390;2023-02-28T09:28:34;12.30;86.20
19728;DHT22;10015;52.530;13.390;2023-02-28T09:31:00;12.40;84.20
19728;DHT22;10015;52.530;13.390;2023-02-28T09:33:26;12.10;84.30
19728;DHT22;10015;52.530;13.390;2023-02-28T09:35:59;11.70;85.60
19728;DHT22;10015;52.530;13.390;2023-02-28T09:38:26;11.50;84.30
19728;DHT22;10015;52.530;13.390;2023-02-28T09:40:57;11.60;84.30
19728;DHT22;10015;52.530;13.390;2023-02-28T09:43:31;11.60;87.00
19728;DHT22;10015;52.530;13.390;2023-02-28T09:46:00;11.70;86.40
19728;DHT22;10015;52.530;13.390;2023-02-28T09:48:32;11.50;83.70
19728;DHT22;10015;52.530;13.390;2023-02-28T09:53:38;10.80;83.80
19728;DHT22;10015;52.530;13.390;2023-02-28T09:56:26;10.70;85.20
19728;DHT22;10015;52.530;13.390;2023-02-28T10:02:17;10.90;85.60
19728;DHT22;10015;52.530;13.390;2023-02-28T10:05:00;10.40;84.40
19728;DHT22;10015;52.530;13.390;2023-02-28T10:08:30;10.40;85.70
19728;DHT22;10015;52.530;13.390;2023-02-28T10:11:01;10.40;85.90
19728;DHT22;10015;52.530;13.390;2023-02-28T10:14:04;10.60;86.10
19728;DHT22;10015;52.530;13.390;2023-02-28T10:17:32;10.20;85.20
19728;DHT22;10015;52.530;13.390;2023-02-28T10:22:29;10.30;85.80
19728;DHT22;10015;52.530;13.390;2023-02-28T10:24:58;10.40;85.50
19728;DHT22;10015;52.530;13.390;2023-02-28T10:27:32;10.30;85.10
19728;DHT22;10015;52.530;13.390;2023-02-28T10:30:01;10.10;86.10
19728;DHT22;10015;52.530;13.390;2023-02-28T10:32:33;10.10;87.10
19728;DHT22;10015;52.530;13.390;2023-02-28T10:37:49;10.10;86.20
19728;DHT22;10015;52.530;13.390;2023-02-28T10:45:59;10.20;86.50
19728;DHT22;10015;52.530;13.390;2023-02-28T10:48:45;10.30;85.60
19728;DHT22;10015;52.530;13.390;2023-02-28T10:51:16;10.20;85.90
19728;DHT22;10015;52.530;13.390;2023-02-28T10:53:50;9.90;87.00
19728;DHT22;10015;52.530;13.390;2023-02-28T10:56:20;9.90;87.20
19728;DHT22;10015;52.530;13.390;2023-02-28T11:01:41;10.20;89.20
19728;DHT22;10015;52.530;13.390;2023-02-28T11:07:20;10.20;84.30
19728;DHT22;10015;52.530;13.390;2023-02-28T11:09:52;10.30;85.10
19728;DHT22;10015;52.530;13.390;2023-02-28T11:12:38;10.20;84.80
19728;DHT22;10015;52.530;13.390;2023-02-28T11:15:24;10.10;85.40
19728;DHT22;10015;52.530;13.390;2023-02-28T11:18:18;10.10;85.10
19728;DHT22;10015;52.530;13.390;2023-02-28T11:20:52;10.30;86.30
19728;DHT22;10015;52.530;13.390;2023-02-28T11:23:20;10.40;85.30
19728;DHT22;10015;52.530;13.390;2023-02-28T11:25:50;10.60;88.50
19728;DHT22;10015;52.530;13.390;2023-02-28T11:28:27;10.90;85.30
19728;DHT22;10015;52.530;13.390;2023-02-28T11:33:40;10.90;83.40
19728;DHT22;10015;52.530;13.390;2023-02-28T11:38:44;10.70;84.60
19728;DHT22;10015;52.530;13.390;2023-02-28T11:41:27;10.50;83.30
19728;DHT22;10015;52.530;13.390;2023-02-28T11:46:56;10.50;84.20
19728;DHT22;10015;52.530;13.390;2023-02-28T11:49:35;10.60;84.00
19728;DHT22;10015;52.530;13.390;2023-02-28T11:52:21;10.60;84.60
19728;DHT22;10015;52.530;13.390;2023-02-28T11:55:33;10.60;84.30
19728;DHT22;10015;52.530;13.390;2023-02-28T12:00:40;10.60;89.80
19728;DHT22;10015;52.530;13.390;2023-02-28T12:03:37;10.60;91.30
19728;DHT22;10015;52.530;13.390;2023-02-28T12:17:37;10.40;85.30
19728;DHT22;10015;52.530;13.390;2023-02-28T12:23:35;10.40;84.90
19728;DHT22;10015;52.530;13.390;2023-02-28T12:28:57;10.50;84.40
19728;DHT22;10015;52.530;13.390;2023-02-28T12:31:33;10.70;85.20
19728;DHT22;10015;52.530;13.390;2023-02-28T12:34:04;10.80;84.70
19728;DHT22;10015;52.530;13.390;2023-02-28T12:36:33;10.90;85.00
19728;DHT22;10015;52.530;13.390;2023-02-28T12:39:11;10.80;83.70
19728;DHT22;10015;52.530;13.390;2023-02-28T12:44:14;10.00;84.60
19728;DHT22;10015;52.530;13.390;2023-02-28T12:46:46;10.30;84.60
19728;DHT22;10015;52.530;13.390;2023-02-28T12:49:19;10.60;84.30
19728;DHT22;10015;52.530;13.390;2023-02-28T12:51:47;10.60;83.90
19728;DHT22;10015;52.530;13.390;2023-02-28T12:54:25;10.70;83.70
19728;DHT22;10015;52.530;13.390;2023-02-28T12:57:46;10.80;83.40
19728;DHT22;10015;52.530;13.390;2023-02-28T12:59:58;11.10;82.70
19728;DHT22;10015;52.530;13.390;2023-02-28T13:08:33;10.50;83.10
19728;DHT22;10015;52.530;13.390;2023-02-28T13:11:06;10.70;84.20
19728;DHT22;10015;52.530;13.390;2023-02-28T13:13:32;10.80;82.90
19728;DHT22;10015;52.530;13.390;2023-02-28T13:15:59;10.80;82.30
19728;DHT22;10015;52.530;13.390;2023-02-28T13:18:34;10.70;82.20
19728;DHT22;10015;52.530;13.390;2023-02-28T13:21:04;10.70;83.90
19728;DHT22;10015;52.530;13.390;2023-02-28T13:23:57;10.70;82.40
19728;DHT22;10015;52.530;13.390;2023-02-28T13:34:36;10.60;82.50
19728;DHT22;10015;52.530;13.390;2023-02-28T13:50:40;9.80;91.50
19728;DHT22;10015;52.530;13.390;2023-02-28T14:06:23;10.40;82.70
19728;DHT22;10015;52.530;13.390;2023-02-28T14:09:05;10.20;83.30
19728;DHT22;10015;52.530;13.390;2023-02-28T14:11:36;10.10;83.10
19728;DHT22;10015;52.530;13.390;2023-02-28T14:14:04;9.90;84.00
19728;DHT22;10015;52.530;13.390;2023-02-28T14:16:40;9.50;84.70
19728;DHT22;10015;52.530;13.390;2023-02-28T14:19:21;9.50;84.90
19728;DHT22;10015;52.530;13.390;2023-02-28T14:32:51;9.00;85.70
19728;DHT22;10015;52.530;13.390;2023-02-28T14:37:53;8.90;88.00
19728;DHT22;10015;52.530;13.390;2023-02-28T14:40:27;9.00;89.30
19728;DHT22;10015;52.530;13.390;2023-02-28T14:42:59;9.10;86.70
19728;DHT22;10015;52.530;13.390;2023-02-28T14:45:33;9.00;86.60
19728;DHT22;10015;52.530;13.390;2023-02-28T14:48:01;9.00;86.20
19728;DHT22;10015;52.530;13.390;2023-02-28T14:50:34;9.00;86.20
19728;DHT22;10015;52.530;13.390;2023-02-28T14:53:00;9.10;85.60
19728;DHT22;10015;52.530;13.390;2023-02-28T14:55:33;9.00;86.40
19728;DHT22;10015;52.530;13.390;2023-02-28T14:58:02;8.90;86.50
19728;DHT22;10015;52.530;13.390;2023-02-28T15:00:36;8.70;87.70
19728;DHT22;10015;52.530;13.390;2023-02-28T15:03:39;8.70;87.90
19728;DHT22;10015;52.530;13.390;2023-02-28T15:06:14;8.70;89.30
19728;DHT22;10015;52.530;13.390;2023-02-28T15:08:40;8.60;90.00
19728;DHT22;10015;52.530;13.390;2023-02-28T15:11:17;8.60;90.50
19728;DHT22;10015;52.530;13.390;2023-02-28T15:13:50;8.60;90.50
19728;DHT22;10015;52.530;13.390;2023-02-28T15:16:36;8.40;90.80
19728;DHT22;10015;52.530;13.390;2023-02-28T15:19:12;8.50;90.80
19728;DHT22;10015;52.530;13.390;2023-02-28T15:21:43;8.50;90.80
19728;DHT22;10015;52.530;13.390;2023-02-28T15:24:27;8.30;91.10
19728;DHT22;10015;52.530;13.390;2023-02-28T15:26:58;8.30;91.00
19728;DHT22;10015;52.530;13.390;2023-02-28T15:29:26;8.20;91.30
19728;DHT22;10015;52.530;13.390;2023-02-28T15:32:01;8.20;91.50
19728;DHT22;10015;52.530;13.390;2023-02-28T15:36:58;8.20;90.80
19728;DHT22;10015;52.530;13.390;2023-02-28T15:39:27;8.00;90.90
19728;DHT22;10015;52.530;13.390;2023-02-28T15:42:20;7.90;91.10
19728;DHT22;10015;52.530;13.390;2023-02-28T15:44:46;7.80;91.20
19728;DHT22;10015;52.530;13.390;2023-02-28T15:47:26;7.60;91.50
19728;DHT22;10015;52.530;13.390;2023-02-28T15:49:55;7.50;91.50
19728;DHT22;10015;52.530;13.390;2023-02-28T15:52:37;7.50;92.00
19728;DHT22;10015;52.530;13.390;2023-02-28T15:55:20;7.50;92.00
19728;DHT22;10015;52.530;13.390;2023-02-28T15:57:51;7.50;92.10
19728;DHT22;10015;52.530;13.390;2023-02-28T16:00:23;7.50;92.10
19728;DHT22;10015;52.530;13.390;2023-02-28T16:02:49;7.60;92.30
19728;DHT22;10015;52.530;13.390;2023-02-28T16:05:20;7.60;92.60
19728;DHT22;10015;52.530;13.390;2023-02-28T16:07:55;7.60;92.80
19728;DHT22;10015;52.530;13.390;2023-02-28T16:10:21;7.60;93.00
19728;DHT22;10015;52.530;13.390;2023-02-28T16:12:51;7.50;92.90
19728;DHT22;10015;52.530;13.390;2023-02-28T16:15:20;7.50;93.10
19728;DHT22;10015;52.530;13.390;2023-02-28T16:17:47;7.40;93.20
19728;DHT22;10015;52.530;13.390;2023-02-28T16:20:22;7.40;93.40
19728;DHT22;10015;52.530;13.390;2023-02-28T16:22:48;7.30;93.20
19728;DHT22;10015;52.530;13.390;2023-02-28T16:25:17;7.00;93.60
19728;DHT22;10015;52.530;13.390;2023-02-28T16:27:46;7.00;94.00
19728;DHT22;10015;52.530;13.390;2023-02-28T16:30:21;6.90;94.20
19728;DHT22;10015;52.530;13.390;2023-02-28T16:32:48;6.80;94.40
19728;DHT22;10015;52.530;13.390;2023-02-28T16:35:15;6.80;94.40
19728;DHT22;10015;52.530;13.390;2023-02-28T16:37:41;6.70;94.60
19728;DHT22;10015;52.530;13.390;2023-02-28T16:40:14;6.70;94.60
19728;DHT22;10015;52.530;13.390;2023-02-28T16:42:41;6.70;94.70
19728;DHT22;10015;52.530;13.390;2023-02-28T16:45:18;6.60;94.60
19728;DHT22;10015;52.530;13.390;2023-02-28T16:47:46;6.60;95.00
19728;DHT22;10015;52.530;13.390;2023-02-28T16:50:23;6.50;94.50
19728;DHT22;10015;52.530;13.390;2023-02-28T16:52:50;6.50;94.50
19728;DHT22;10015;52.530;13.390;2023-02-28T16:55:18;6.50;94.50
19728;DHT22;10015;52.530;13.390;2023-02-28T16:57:48;6.40;94.50
19728;DHT22;10015;52.530;13.390;2023-02-28T17:00:15;6.40;94.80
19728;DHT22;10015;52.530;13.390;2023-02-28T17:02:41;6.20;94.90
19728;DHT22;10015;52.530;13.390;2023-02-28T17:05:10;6.10;94.90
19728;DHT22;10015;52.530;13.390;2023-02-28T17:07:36;6.20;95.20
19728;DHT22;10015;52.530;13.390;2023-02-28T17:10:04;6.20;95.20
19728;DHT22;10015;52.530;13.390;2023-02-28T17:12:36;6.10;95.40
19728;DHT22;10015;52.530;13.390;2023-02-28T17:15:02;6.10;95.40
19728;DHT22;10015;52.530;13.390;2023-02-28T17:17:28;6.20;95.30
19728;DHT22;10015;52.530;13.390;2023-02-28T17:19:54;6.10;95.30
19728;DHT22;10015;52.530;13.390;2023-02-28T17:22:20;6.10;95.60
19728;DHT22;10015;52.530;13.390;2023-02-28T17:24:46;6.20;95.80
19728;DHT22;10015;52.530;13.390;2023-02-28T17:27:12;6.20;95.80
19728;DHT22;10015;52.530;13.390;2023-02-28T17:29:38;6.10;95.90
19728;DHT22;10015;52.530;13.390;2023-02-28T17:32:04;6.10;96.00
19728;DHT22;10015;52.530;13.390;2023-02-28T17:34:30;6.10;96.00
19728;DHT22;10015;52.530;13.390;2023-02-28T17:36:56;6.20;96.20
19728;DHT22;10015;52.530;13.390;2023-02-28T17:39:23;6.30;98.50
19728;DHT22;10015;52.530;13.390;2023-02-28T17:41:53;6.30;97.10
19728;DHT22;10015;52.530;13.390;2023-02-28T17:44:20;6.30;96.90
19728;DHT22;10015;52.530;13.390;2023-02-28T17:46:47;6.20;96.80
19728;DHT22;10015;52.530;13.390;2023-02-28T17:49:13;6.20;96.90
19728;DHT22;10015;52.530;13.390;2023-02-28T17:51:39;6.00;96.60
19728;DHT22;10015;52.530;13.390;2023-02-28T17:54:05;5.80;96.70
19728;DHT22;10015;52.530;13.390;2023-02-28T17:56:31;5.80;97.00
19728;DHT22;10015;52.530;13.390;2023-02-28T17:58:59;5.70;97.20
19728;DHT22;10015;52.530;13.390;2023-02-28T18:01:25;5.80;97.20
19728;DHT22;10015;52.530;13.390;2023-02-28T18:03:55;5.80;97.30
19728;DHT22;10015;52.530;13.390;2023-02-28T18:06:39;5.80;97.50
19728;DHT22;10015;52.530;13.390;2023-02-28T18:09:19;5.90;97.60
19728;DHT22;10015;52.530;13.390;2023-02-28T18:11:54;6.00;97.90